Montgomery Regional (Dannelly Field) Airport Montgomery US
ICAO: KMGM
IATA: MGM
Category: Large
Scheduled Services: Yes

Elevation: 221 ft
TransAlt. 18000 ft.

Airport Communications:
APP/DEP:118.85
ATIS:120.675
CLNC DEL:118.3
CTAF:119.7
GND:121.7
ARNG OPS:38.2
ANG OPS:27.68
ANNISTON RDO:122.2
SFA:122.85
TWR:119.7
UNICOM:122.95

KMGM Zoom In..

Runways:

(A) RW 03 length 4011 ft width 150 ft
---- / hdg 34

(B) RW 10 length 9020 ft width 150 ft
ILS 109.90 / hdg 97

(C) RW 21 length 4011 ft width 150 ft
---- / hdg 214

(D) RW 28 length 9020 ft width 150 ft
ILS 108.50 / hdg 277

Location; KMGM
Day. 23 / Time. 21.53 Zulu
* Altimeter: 30.10
* Temperature: 13° c. 55.4°f.
* Wind from: 280° Speed 12 kn.
Dewpoint: -01° c.
Visibility: 10 Statute Miles.
Clouds: Clear (automated report).

KMGM 232153Z 28012KT 10SM CLR 13/M01 A3010 RMK AO2 SLP193 T01331006


Wind From 280°
Speed 12 kn.

YouTube Music Video
 
jpsmedia.com for Web Design  worldairports.se 2018   terms of use